Time;durP1;ratioP1;P1;durP2;ratioP2;P2;SDS_P1;SDS_P2;PMS_P1;PMS_P2;Temp;Humidity;BMP_temperature;BMP_pressure;BME280_temperature;BME280_humidity;BME280_pressure;Samples;Min_cycle;Max_cycle;Signal;HPM_P1;HPM_P2
2023/11/27 00:00:08;;;;;;;6.37;3.70;;;;;;;;;;521977;28;882;-72
2023/11/27 00:00:27;;;;;;;7.35;3.65;;;;;;;;;;521743;28;1060;-72
2023/11/27 00:00:43;;;;;;;7.30;3.60;;;;;;;;;;523952;28;1552;-72
2023/11/27 00:00:58;;;;;;;8.15;3.83;;;;;;;;;;523382;28;1232;-71
2023/11/27 00:01:14;;;;;;;6.87;3.70;;;;;;;;;;521827;28;853;-72
2023/11/27 00:01:29;;;;;;;6.70;3.50;;;;;;;;;;522926;28;1048;-72
2023/11/27 00:01:44;;;;;;;7.22;3.58;;;;;;;;;;523761;28;997;-72
2023/11/27 00:02:00;;;;;;;7.10;3.40;;;;;;;;;;523730;28;1178;-72
2023/11/27 00:02:15;;;;;;;6.53;3.27;;;;;;;;;;524035;28;818;-72
2023/11/27 00:02:30;;;;;;;5.47;3.33;;;;;;;;;;521622;28;1239;-72
2023/11/27 00:02:45;;;;;;;6.33;3.57;;;;;;;;;;519007;28;1884;-72
2023/11/27 00:03:01;;;;;;;6.80;3.60;;;;;;;;;;519634;28;1918;-72
2023/11/27 00:03:16;;;;;;;7.15;3.55;;;;;;;;;;517504;28;887;-72
2023/11/27 00:03:31;;;;;;;7.90;3.70;;;;;;;;;;515518;28;1518;-72
2023/11/27 00:03:48;;;;;;;7.20;3.70;;;;;;;;;;515869;28;890;-72
2023/11/27 00:04:04;;;;;;;7.57;3.80;;;;;;;;;;517388;28;969;-72
2023/11/27 00:04:19;;;;;;;6.70;3.65;;;;;;;;;;518125;28;855;-72
2023/11/27 00:04:35;;;;;;;5.20;3.40;;;;;;;;;;518384;28;982;-73
2023/11/27 00:04:50;;;;;;;5.20;3.30;;;;;;;;;;517735;28;1590;-71
2023/11/27 00:05:06;;;;;;;6.80;3.53;;;;;;;;;;516162;28;1401;-71
2023/11/27 00:05:21;;;;;;;7.82;3.67;;;;;;;;;;519845;28;1363;-72
2023/11/27 00:05:37;;;;;;;7.17;3.50;;;;;;;;;;521544;28;1120;-72
2023/11/27 00:05:52;;;;;;;7.30;3.63;;;;;;;;;;523514;28;1459;-72
2023/11/27 00:06:08;;;;;;;7.60;3.60;;;;;;;;;;524019;28;937;-72
2023/11/27 00:06:24;;;;;;;8.18;3.50;;;;;;;;;;521053;28;1636;-72
2023/11/27 00:06:39;;;;;;;8.88;3.88;;;;;;;;;;521361;28;911;-72
2023/11/27 00:06:54;;;;;;;8.83;3.90;;;;;;;;;;520188;28;835;-72
2023/11/27 00:07:09;;;;;;;8.07;3.57;;;;;;;;;;522243;28;883;-72
2023/11/27 00:07:25;;;;;;;6.93;3.63;;;;;;;;;;523574;28;965;-72
2023/11/27 00:07:40;;;;;;;6.55;3.75;;;;;;;;;;523976;28;994;-72
2023/11/27 00:07:55;;;;;;;6.97;3.70;;;;;;;;;;522705;28;1055;-71
2023/11/27 00:08:11;;;;;;;7.87;3.80;;;;;;;;;;523837;28;1155;-72
2023/11/27 00:08:26;;;;;;;8.13;3.83;;;;;;;;;;523675;28;1048;-72
2023/11/27 00:08:41;;;;;;;6.77;3.57;;;;;;;;;;521847;28;1364;-72
2023/11/27 00:08:57;;;;;;;6.40;3.63;;;;;;;;;;518608;28;1938;-72
2023/11/27 00:09:12;;;;;;;6.57;3.58;;;;;;;;;;517780;28;804;-72
2023/11/27 00:09:27;;;;;;;6.87;3.67;;;;;;;;;;518572;28;1164;-72
2023/11/27 00:09:42;;;;;;;7.20;3.73;;;;;;;;;;521893;28;903;-72
2023/11/27 00:09:58;;;;;;;7.53;3.55;;;;;;;;;;521863;28;1041;-73
2023/11/27 00:10:13;;;;;;;8.37;3.70;;;;;;;;;;518699;28;1836;-71
2023/11/27 00:10:28;;;;;;;8.83;3.80;;;;;;;;;;520324;28;1052;-71
2023/11/27 00:10:44;;;;;;;8.57;3.70;;;;;;;;;;520848;28;1330;-72
2023/11/27 00:10:59;;;;;;;8.33;3.73;;;;;;;;;;521448;28;1293;-72
2023/11/27 00:11:15;;;;;;;7.80;3.60;;;;;;;;;;522082;28;1117;-72
2023/11/27 00:11:30;;;;;;;6.50;3.58;;;;;;;;;;522951;28;1076;-71
2023/11/27 00:11:45;;;;;;;5.57;3.60;;;;;;;;;;521889;28;886;-72
2023/11/27 00:12:04;;;;;;;6.30;3.60;;;;;;;;;;519745;28;1409;-72
2023/11/27 00:12:19;;;;;;;7.68;3.53;;;;;;;;;;519204;28;1736;-72
2023/11/27 00:12:34;;;;;;;9.30;3.60;;;;;;;;;;519700;28;922;-72
2023/11/27 00:12:50;;;;;;;8.20;3.50;;;;;;;;;;516994;28;1335;-72
2023/11/27 00:13:05;;;;;;;6.20;3.20;;;;;;;;;;515715;28;800;-72
2023/11/27 00:13:20;;;;;;;6.53;3.47;;;;;;;;;;517229;28;1025;-72
2023/11/27 00:13:36;;;;;;;8.02;3.85;;;;;;;;;;518218;28;982;-72
2023/11/27 00:13:51;;;;;;;7.67;3.70;;;;;;;;;;520130;28;842;-73
2023/11/27 00:14:07;;;;;;;6.88;3.65;;;;;;;;;;521716;28;862;-72
2023/11/27 00:14:22;;;;;;;5.93;3.60;;;;;;;;;;521617;28;1359;-72
2023/11/27 00:14:37;;;;;;;5.93;3.80;;;;;;;;;;519840;28;1005;-72
2023/11/27 00:14:53;;;;;;;7.00;3.63;;;;;;;;;;521307;28;1869;-72
2023/11/27 00:15:08;;;;;;;6.27;3.30;;;;;;;;;;521214;28;902;-72
2023/11/27 00:15:24;;;;;;;5.82;3.42;;;;;;;;;;522279;28;1126;-72
2023/11/27 00:15:39;;;;;;;6.77;3.50;;;;;;;;;;521706;28;827;-72
2023/11/27 00:15:54;;;;;;;6.65;3.50;;;;;;;;;;521816;28;823;-72
2023/11/27 00:16:10;;;;;;;7.37;3.73;;;;;;;;;;521730;28;1245;-72
2023/11/27 00:16:25;;;;;;;7.43;3.73;;;;;;;;;;521750;28;1622;-72
2023/11/27 00:16:41;;;;;;;6.40;3.47;;;;;;;;;;523996;28;819;-72
2023/11/27 00:16:56;;;;;;;5.73;3.40;;;;;;;;;;524118;28;1001;-72
2023/11/27 00:17:12;;;;;;;6.55;3.53;;;;;;;;;;523951;28;847;-72
2023/11/27 00:17:28;;;;;;;7.45;3.55;;;;;;;;;;523016;28;1606;-71
2023/11/27 00:17:43;;;;;;;6.73;3.30;;;;;;;;;;525186;28;1620;-72
2023/11/27 00:17:58;;;;;;;6.73;3.30;;;;;;;;;;523683;28;1719;-72
2023/11/27 00:18:13;;;;;;;7.03;3.42;;;;;;;;;;523976;28;889;-72
2023/11/27 00:18:29;;;;;;;6.17;3.43;;;;;;;;;;522541;28;1039;-71
2023/11/27 00:18:46;;;;;;;6.17;3.40;;;;;;;;;;521330;28;1977;-71
2023/11/27 00:19:01;;;;;;;7.13;3.45;;;;;;;;;;521622;28;1210;-72
2023/11/27 00:19:17;;;;;;;7.53;3.53;;;;;;;;;;521864;28;894;-72
2023/11/27 00:19:32;;;;;;;6.73;3.43;;;;;;;;;;521695;28;1076;-72
2023/11/27 00:19:47;;;;;;;5.93;3.17;;;;;;;;;;522168;28;1113;-72
2023/11/27 00:20:03;;;;;;;7.27;3.47;;;;;;;;;;522578;28;1983;-72
2023/11/27 00:20:18;;;;;;;7.03;3.55;;;;;;;;;;522565;28;1913;-72
2023/11/27 00:20:34;;;;;;;5.07;3.40;;;;;;;;;;523735;28;1588;-72
2023/11/27 00:20:49;;;;;;;5.17;3.47;;;;;;;;;;524055;28;966;-71
2023/11/27 00:21:04;;;;;;;6.28;3.50;;;;;;;;;;524064;28;1083;-72
2023/11/27 00:21:19;;;;;;;6.93;3.40;;;;;;;;;;523817;28;1222;-71
2023/11/27 00:21:35;;;;;;;7.13;3.33;;;;;;;;;;524066;28;996;-72
2023/11/27 00:21:50;;;;;;;6.45;3.30;;;;;;;;;;523896;28;1193;-72
2023/11/27 00:22:05;;;;;;;5.33;3.30;;;;;;;;;;523944;28;1318;-71
2023/11/27 00:22:21;;;;;;;5.13;3.27;;;;;;;;;;523804;28;1373;-72
2023/11/27 00:22:36;;;;;;;6.45;3.38;;;;;;;;;;524066;28;910;-72
2023/11/27 00:22:53;;;;;;;7.77;3.40;;;;;;;;;;524126;28;834;-71
2023/11/27 00:23:10;;;;;;;6.78;3.30;;;;;;;;;;524144;28;865;-72
2023/11/27 00:23:25;;;;;;;7.03;3.42;;;;;;;;;;524239;28;1321;-72
2023/11/27 00:23:41;;;;;;;7.30;3.38;;;;;;;;;;526176;28;803;-71
2023/11/27 00:23:56;;;;;;;5.87;3.03;;;;;;;;;;524307;28;1812;-71
2023/11/27 00:24:11;;;;;;;6.38;3.22;;;;;;;;;;523535;28;1017;-72
2023/11/27 00:24:27;;;;;;;7.33;3.50;;;;;;;;;;520744;28;1247;-72
2023/11/27 00:24:42;;;;;;;7.07;3.30;;;;;;;;;;521918;28;938;-72
2023/11/27 00:24:57;;;;;;;6.27;3.20;;;;;;;;;;521700;28;1293;-72
2023/11/27 00:25:12;;;;;;;5.73;3.30;;;;;;;;;;521781;28;965;-72
2023/11/27 00:25:28;;;;;;;7.27;3.17;;;;;;;;;;521544;28;1251;-72
2023/11/27 00:25:43;;;;;;;7.40;2.92;;;;;;;;;;521940;28;1083;-72
2023/11/27 00:25:58;;;;;;;7.20;3.20;;;;;;;;;;521623;28;913;-72
2023/11/27 00:26:14;;;;;;;7.23;3.27;;;;;;;;;;521967;28;863;-72
2023/11/27 00:26:29;;;;;;;6.53;3.00;;;;;;;;;;523902;28;1021;-72
2023/11/27 00:26:44;;;;;;;5.60;3.30;;;;;;;;;;524088;28;831;-72
2023/11/27 00:27:00;;;;;;;6.27;3.40;;;;;;;;;;523551;28;1153;-72
2023/11/27 00:27:15;;;;;;;6.20;3.30;;;;;;;;;;524203;28;818;-72
2023/11/27 00:27:31;;;;;;;5.65;3.20;;;;;;;;;;523837;28;917;-72
2023/11/27 00:27:47;;;;;;;6.27;3.10;;;;;;;;;;524196;28;1371;-72
2023/11/27 00:28:02;;;;;;;5.38;3.00;;;;;;;;;;523760;28;1326;-71
2023/11/27 00:28:17;;;;;;;4.90;2.90;;;;;;;;;;523893;28;889;-71
2023/11/27 00:28:33;;;;;;;5.30;3.00;;;;;;;;;;518951;28;1917;-72
2023/11/27 00:28:49;;;;;;;5.80;3.08;;;;;;;;;;520921;28;1218;-72
2023/11/27 00:29:05;;;;;;;6.22;2.92;;;;;;;;;;521495;28;2004;-72
2023/11/27 00:29:20;;;;;;;6.13;2.97;;;;;;;;;;521662;28;866;-71
2023/11/27 00:29:35;;;;;;;6.10;3.20;;;;;;;;;;519753;28;1160;-72
2023/11/27 00:29:51;;;;;;;6.80;3.38;;;;;;;;;;519811;28;1037;-72
2023/11/27 00:30:07;;;;;;;8.23;3.40;;;;;;;;;;517671;28;1297;-72
2023/11/27 00:30:22;;;;;;;8.25;3.33;;;;;;;;;;518897;28;1033;-71
2023/11/27 00:30:38;;;;;;;6.95;3.15;;;;;;;;;;522597;28;834;-72
2023/11/27 00:30:53;;;;;;;5.90;3.10;;;;;;;;;;521964;28;886;-72
2023/11/27 00:31:09;;;;;;;6.27;3.17;;;;;;;;;;521876;28;866;-71
2023/11/27 00:31:24;;;;;;;6.45;2.95;;;;;;;;;;521755;28;1021;-72
2023/11/27 00:31:39;;;;;;;7.10;3.20;;;;;;;;;;521637;28;1015;-72
2023/11/27 00:31:55;;;;;;;6.65;3.22;;;;;;;;;;521400;28;1857;-72
2023/11/27 00:32:10;;;;;;;5.63;2.90;;;;;;;;;;522209;28;798;-72
2023/11/27 00:32:25;;;;;;;6.43;2.90;;;;;;;;;;522368;28;975;-71
2023/11/27 00:32:40;;;;;;;6.55;3.20;;;;;;;;;;524068;28;752;-72
2023/11/27 00:32:56;;;;;;;5.60;3.10;;;;;;;;;;523804;28;854;-72
2023/11/27 00:33:11;;;;;;;5.23;3.10;;;;;;;;;;519563;28;1555;-71
2023/11/27 00:33:27;;;;;;;5.68;3.10;;;;;;;;;;520647;28;1120;-72
2023/11/27 00:33:45;;;;;;;5.57;2.90;;;;;;;;;;519689;28;1320;-72
2023/11/27 00:34:00;;;;;;;5.72;3.10;;;;;;;;;;519102;28;1436;-72
2023/11/27 00:34:16;;;;;;;5.97;3.15;;;;;;;;;;519793;28;811;-71
2023/11/27 00:34:32;;;;;;;5.93;2.95;;;;;;;;;;519400;28;1191;-72
2023/11/27 00:34:47;;;;;;;6.83;2.90;;;;;;;;;;519766;28;985;-72
2023/11/27 00:35:02;;;;;;;6.35;2.88;;;;;;;;;;519837;28;859;-72
2023/11/27 00:35:18;;;;;;;6.13;3.00;;;;;;;;;;519680;28;933;-72
2023/11/27 00:35:33;;;;;;;6.33;3.07;;;;;;;;;;519658;28;1065;-72
2023/11/27 00:35:48;;;;;;;6.53;2.95;;;;;;;;;;521242;28;1400;-72
2023/11/27 00:36:04;;;;;;;8.53;3.10;;;;;;;;;;521889;28;909;-72
2023/11/27 00:36:20;;;;;;;8.15;3.10;;;;;;;;;;521897;28;1005;-72
2023/11/27 00:36:36;;;;;;;7.10;3.00;;;;;;;;;;523991;28;879;-72
2023/11/27 00:36:51;;;;;;;5.88;2.85;;;;;;;;;;523713;28;1435;-71
2023/11/27 00:37:07;;;;;;;5.67;2.87;;;;;;;;;;523993;28;845;-72
2023/11/27 00:37:22;;;;;;;5.13;2.80;;;;;;;;;;523705;28;1052;-72
2023/11/27 00:37:37;;;;;;;5.15;2.85;;;;;;;;;;523969;28;838;-72
2023/11/27 00:37:53;;;;;;;5.73;3.07;;;;;;;;;;523604;28;1084;-72
2023/11/27 00:38:08;;;;;;;6.63;3.15;;;;;;;;;;521801;28;1194;-72
2023/11/27 00:38:23;;;;;;;6.43;3.00;;;;;;;;;;521691;28;1064;-72
2023/11/27 00:38:39;;;;;;;5.50;3.00;;;;;;;;;;521651;28;985;-72
2023/11/27 00:38:54;;;;;;;5.72;3.15;;;;;;;;;;521493;28;1210;-73
2023/11/27 00:39:10;;;;;;;5.40;3.00;;;;;;;;;;521785;28;1333;-71
2023/11/27 00:39:25;;;;;;;5.13;2.93;;;;;;;;;;519581;28;1683;-72
2023/11/27 00:39:40;;;;;;;5.87;3.13;;;;;;;;;;519963;28;1065;-72
2023/11/27 00:39:56;;;;;;;6.30;3.03;;;;;;;;;;519825;28;1044;-71
2023/11/27 00:40:11;;;;;;;6.47;2.90;;;;;;;;;;519890;28;1065;-72
2023/11/27 00:40:26;;;;;;;6.13;2.80;;;;;;;;;;522179;28;926;-72
2023/11/27 00:40:42;;;;;;;6.40;2.80;;;;;;;;;;523630;28;934;-72
2023/11/27 00:40:57;;;;;;;7.10;2.90;;;;;;;;;;523471;28;1157;-72
2023/11/27 00:41:14;;;;;;;5.73;2.87;;;;;;;;;;524123;28;803;-72
2023/11/27 00:41:29;;;;;;;5.28;2.78;;;;;;;;;;524441;28;1011;-71
2023/11/27 00:41:44;;;;;;;5.83;2.80;;;;;;;;;;521779;28;1141;-72
2023/11/27 00:42:00;;;;;;;7.10;2.80;;;;;;;;;;521912;28;811;-72
2023/11/27 00:42:15;;;;;;;6.80;2.80;;;;;;;;;;521890;28;1186;-72
2023/11/27 00:42:30;;;;;;;5.73;2.83;;;;;;;;;;521336;28;1088;-72
2023/11/27 00:42:46;;;;;;;5.83;2.80;;;;;;;;;;521726;28;922;-72
2023/11/27 00:43:04;;;;;;;6.32;2.90;;;;;;;;;;521978;28;934;-72
2023/11/27 00:43:19;;;;;;;6.70;3.00;;;;;;;;;;521781;28;937;-72
2023/11/27 00:43:35;;;;;;;6.57;2.90;;;;;;;;;;520447;28;807;-72
2023/11/27 00:43:50;;;;;;;5.53;2.70;;;;;;;;;;519924;28;1458;-72
2023/11/27 00:44:06;;;;;;;5.57;2.80;;;;;;;;;;518971;28;1314;-72
2023/11/27 00:44:21;;;;;;;6.28;3.03;;;;;;;;;;520928;28;1092;-72
2023/11/27 00:44:36;;;;;;;5.47;2.93;;;;;;;;;;521713;28;1079;-72
2023/11/27 00:44:51;;;;;;;6.37;3.17;;;;;;;;;;519623;28;1156;-71
2023/11/27 00:45:07;;;;;;;6.43;3.17;;;;;;;;;;519795;28;858;-71
2023/11/27 00:45:22;;;;;;;5.20;2.83;;;;;;;;;;519692;28;965;-72
2023/11/27 00:45:37;;;;;;;5.30;2.80;;;;;;;;;;519863;28;1151;-72
2023/11/27 00:45:53;;;;;;;6.05;2.90;;;;;;;;;;522098;28;886;-71
2023/11/27 00:46:09;;;;;;;6.00;2.83;;;;;;;;;;523763;28;1189;-71
2023/11/27 00:46:25;;;;;;;6.70;2.85;;;;;;;;;;523822;28;1009;-72
2023/11/27 00:46:40;;;;;;;6.57;3.10;;;;;;;;;;524246;28;787;-71
2023/11/27 00:46:55;;;;;;;6.00;3.17;;;;;;;;;;525814;28;802;-72
2023/11/27 00:47:11;;;;;;;6.28;3.00;;;;;;;;;;525985;28;985;-72
2023/11/27 00:47:26;;;;;;;6.33;3.00;;;;;;;;;;524876;28;1508;-72
2023/11/27 00:47:41;;;;;;;6.67;3.00;;;;;;;;;;523796;28;970;-71
2023/11/27 00:47:59;;;;;;;6.67;3.00;;;;;;;;;;523930;28;1050;-72
2023/11/27 00:48:14;;;;;;;6.07;3.00;;;;;;;;;;524005;28;862;-72
2023/11/27 00:48:29;;;;;;;6.75;3.00;;;;;;;;;;523788;28;1028;-71
2023/11/27 00:48:45;;;;;;;6.53;2.90;;;;;;;;;;523886;28;873;-71
2023/11/27 00:49:00;;;;;;;5.30;2.83;;;;;;;;;;520753;28;1983;-72
2023/11/27 00:49:15;;;;;;;5.60;3.07;;;;;;;;;;521893;28;886;-71
2023/11/27 00:49:31;;;;;;;5.85;3.10;;;;;;;;;;520158;28;1441;-72
2023/11/27 00:49:47;;;;;;;5.53;2.97;;;;;;;;;;521965;28;865;-72
2023/11/27 00:50:03;;;;;;;5.95;2.80;;;;;;;;;;521818;28;847;-71
2023/11/27 00:50:18;;;;;;;7.70;2.95;;;;;;;;;;521718;28;925;-72
2023/11/27 00:50:34;;;;;;;8.07;3.20;;;;;;;;;;521426;28;1009;-72
2023/11/27 00:50:49;;;;;;;6.67;3.07;;;;;;;;;;521854;28;1036;-72
2023/11/27 00:51:05;;;;;;;6.30;3.00;;;;;;;;;;521631;28;957;-72
2023/11/27 00:51:20;;;;;;;7.40;3.22;;;;;;;;;;521901;28;1305;-72
2023/11/27 00:51:35;;;;;;;6.83;3.30;;;;;;;;;;523941;28;1215;-72
2023/11/27 00:51:50;;;;;;;5.63;3.05;;;;;;;;;;524039;28;838;-72
2023/11/27 00:52:06;;;;;;;7.27;3.10;;;;;;;;;;524034;28;913;-72
2023/11/27 00:52:21;;;;;;;7.37;3.17;;;;;;;;;;524055;28;807;-72
2023/11/27 00:52:36;;;;;;;6.27;3.03;;;;;;;;;;524012;28;985;-73
2023/11/27 00:52:52;;;;;;;7.18;3.15;;;;;;;;;;524106;28;827;-72
2023/11/27 00:53:07;;;;;;;8.17;3.20;;;;;;;;;;523682;28;1288;-72
2023/11/27 00:53:23;;;;;;;7.97;3.00;;;;;;;;;;523874;28;938;-72
2023/11/27 00:53:38;;;;;;;5.87;2.60;;;;;;;;;;521727;28;1192;-72
2023/11/27 00:53:53;;;;;;;4.37;2.37;;;;;;;;;;521589;28;894;-72
2023/11/27 00:54:08;;;;;;;5.45;2.65;;;;;;;;;;521769;28;1052;-71
2023/11/27 00:54:24;;;;;;;6.73;3.03;;;;;;;;;;521783;28;1222;-72
2023/11/27 00:54:39;;;;;;;7.00;3.20;;;;;;;;;;521867;28;897;-72
2023/11/27 00:54:54;;;;;;;6.53;3.30;;;;;;;;;;521867;28;1052;-72
2023/11/27 00:55:10;;;;;;;6.28;3.10;;;;;;;;;;521594;28;1400;-72
2023/11/27 00:55:26;;;;;;;6.57;2.85;;;;;;;;;;521889;28;1112;-72
2023/11/27 00:55:41;;;;;;;6.73;3.03;;;;;;;;;;521791;28;1194;-72
2023/11/27 00:55:56;;;;;;;5.85;3.00;;;;;;;;;;521829;28;946;-72
2023/11/27 00:56:12;;;;;;;5.07;2.80;;;;;;;;;;521482;28;977;-72
2023/11/27 00:56:27;;;;;;;5.53;2.80;;;;;;;;;;520673;28;988;-72
2023/11/27 00:56:43;;;;;;;5.60;2.73;;;;;;;;;;521766;28;949;-72
2023/11/27 00:56:58;;;;;;;5.17;2.77;;;;;;;;;;519254;28;1883;-72
2023/11/27 00:57:13;;;;;;;5.03;2.67;;;;;;;;;;523331;28;973;-72
2023/11/27 00:57:28;;;;;;;5.23;2.60;;;;;;;;;;519902;28;1329;-72
2023/11/27 00:57:44;;;;;;;5.43;2.73;;;;;;;;;;521881;28;870;-72
2023/11/27 00:57:59;;;;;;;6.77;2.87;;;;;;;;;;521673;28;1136;-72
2023/11/27 00:58:14;;;;;;;7.18;2.85;;;;;;;;;;521507;28;1341;-72
2023/11/27 00:58:29;;;;;;;6.47;2.83;;;;;;;;;;521761;28;819;-71
2023/11/27 00:58:46;;;;;;;5.72;2.78;;;;;;;;;;520602;28;1364;-72
2023/11/27 00:59:01;;;;;;;4.93;2.80;;;;;;;;;;520052;28;1214;-72
2023/11/27 00:59:16;;;;;;;5.45;2.83;;;;;;;;;;520981;28;1302;-71
2023/11/27 00:59:38;;;;;;;5.77;2.90;;;;;;;;;;521758;28;1028;-72
2023/11/27 00:59:53;;;;;;;4.80;2.67;;;;;;;;;;519835;28;1127;-72
2023/11/27 01:00:11;;;;;;;4.87;2.80;;;;;;;;;;523011;28;918;-72
2023/11/27 01:00:26;;;;;;;5.28;2.85;;;;;;;;;;524648;28;1048;-72
2023/11/27 01:00:42;;;;;;;5.45;2.90;;;;;;;;;;525893;28;1387;-71
2023/11/27 01:00:57;;;;;;;6.68;3.13;;;;;;;;;;525088;28;1498;-72
2023/11/27 01:01:14;;;;;;;7.30;3.10;;;;;;;;;;524862;28;1292;-72
2023/11/27 01:01:29;;;;;;;6.45;2.90;;;;;;;;;;524497;28;1304;-72
2023/11/27 01:01:45;;;;;;;6.07;2.83;;;;;;;;;;522748;28;1317;-72
2023/11/27 01:02:00;;;;;;;5.60;2.88;;;;;;;;;;522792;28;1293;-72
2023/11/27 01:02:15;;;;;;;5.57;2.90;;;;;;;;;;520476;28;1376;-72
2023/11/27 01:02:31;;;;;;;5.37;2.67;;;;;;;;;;520330;28;1389;-72
2023/11/27 01:02:46;;;;;;;6.32;2.65;;;;;;;;;;520208;28;1408;-71
2023/11/27 01:03:01;;;;;;;6.00;2.70;;;;;;;;;;520266;28;1437;-72
2023/11/27 01:03:17;;;;;;;5.15;2.65;;;;;;;;;;520318;28;1563;-72
2023/11/27 01:03:32;;;;;;;6.70;2.80;;;;;;;;;;517677;28;1426;-71
2023/11/27 01:03:48;;;;;;;7.40;2.80;;;;;;;;;;519786;28;902;-71
2023/11/27 01:04:03;;;;;;;5.82;2.80;;;;;;;;;;519562;28;834;-72
2023/11/27 01:04:18;;;;;;;5.13;2.80;;;;;;;;;;521822;28;859;-71
2023/11/27 01:04:34;;;;;;;5.20;2.63;;;;;;;;;;521019;28;1140;-72
2023/11/27 01:04:49;;;;;;;4.80;2.58;;;;;;;;;;519831;28;847;-72
2023/11/27 01:05:07;;;;;;;6.03;2.83;;;;;;;;;;519684;28;1216;-72
2023/11/27 01:05:23;;;;;;;6.03;2.70;;;;;;;;;;520020;28;1016;-72
2023/11/27 01:05:39;;;;;;;5.28;2.80;;;;;;;;;;519509;28;1467;-71
2023/11/27 01:05:56;;;;;;;5.07;2.80;;;;;;;;;;519721;28;1587;-71
2023/11/27 01:06:14;;;;;;;4.93;2.78;;;;;;;;;;519811;28;1485;-72
2023/11/27 01:06:30;;;;;;;6.40;2.90;;;;;;;;;;519953;28;963;-71
2023/11/27 01:06:50;;;;;;;6.13;2.90;;;;;;;;;;519969;28;914;-72
2023/11/27 01:07:05;;;;;;;4.55;2.55;;;;;;;;;;521621;28;1220;-72
2023/11/27 01:07:21;;;;;;;4.88;2.65;;;;;;;;;;518621;28;1339;-72
2023/11/27 01:07:36;;;;;;;6.53;2.87;;;;;;;;;;519112;28;1354;-72
2023/11/27 01:07:51;;;;;;;6.57;2.90;;;;;;;;;;517502;28;1342;-72
2023/11/27 01:08:06;;;;;;;5.90;2.80;;;;;;;;;;517710;28;890;-71
2023/11/27 01:08:22;;;;;;;6.50;2.63;;;;;;;;;;517020;28;971;-71
2023/11/27 01:08:37;;;;;;;6.83;2.60;;;;;;;;;;517779;28;791;-72
2023/11/27 01:08:53;;;;;;;6.47;2.60;;;;;;;;;;518101;28;1338;-73
2023/11/27 01:09:08;;;;;;;5.27;2.60;;;;;;;;;;517634;28;1979;-72
2023/11/27 01:09:24;;;;;;;5.63;2.60;;;;;;;;;;520109;28;1017;-71
2023/11/27 01:09:39;;;;;;;6.30;2.80;;;;;;;;;;521943;28;879;-71
2023/11/27 01:09:55;;;;;;;6.20;2.90;;;;;;;;;;520186;28;1673;-72
2023/11/27 01:10:10;;;;;;;5.27;2.60;;;;;;;;;;521345;28;1186;-71
2023/11/27 01:10:26;;;;;;;4.40;2.50;;;;;;;;;;522566;28;1005;-72
2023/11/27 01:10:44;;;;;;;4.77;2.70;;;;;;;;;;523796;28;787;-72
2023/11/27 01:10:59;;;;;;;5.22;2.67;;;;;;;;;;521102;28;952;-71
2023/11/27 01:11:15;;;;;;;5.35;2.78;;;;;;;;;;517582;28;1496;-72
2023/11/27 01:11:30;;;;;;;5.73;2.80;;;;;;;;;;518551;28;1433;-72
2023/11/27 01:11:45;;;;;;;5.93;2.70;;;;;;;;;;519938;28;1706;-72
2023/11/27 01:12:00;;;;;;;5.70;2.72;;;;;;;;;;521287;28;1765;-72
2023/11/27 01:12:16;;;;;;;5.83;3.00;;;;;;;;;;521758;28;1793;-71
2023/11/27 01:12:32;;;;;;;5.93;3.08;;;;;;;;;;521550;28;1053;-72
2023/11/27 01:12:47;;;;;;;6.38;3.00;;;;;;;;;;521914;28;851;-72
2023/11/27 01:13:03;;;;;;;6.33;2.90;;;;;;;;;;522043;28;982;-72
2023/11/27 01:13:19;;;;;;;6.37;2.80;;;;;;;;;;523927;28;866;-71
2023/11/27 01:13:35;;;;;;;6.85;2.85;;;;;;;;;;521783;28;1628;-71
2023/11/27 01:13:50;;;;;;;6.50;2.80;;;;;;;;;;521361;28;1057;-72
2023/11/27 01:14:05;;;;;;;6.07;3.00;;;;;;;;;;521404;28;1113;-72
2023/11/27 01:14:21;;;;;;;6.25;2.90;;;;;;;;;;519455;28;1359;-72
2023/11/27 01:14:36;;;;;;;5.93;2.60;;;;;;;;;;520370;28;1843;-71
2023/11/27 01:14:52;;;;;;;5.25;2.38;;;;;;;;;;519156;28;898;-72
2023/11/27 01:15:07;;;;;;;5.40;2.40;;;;;;;;;;517246;28;2321;-71
2023/11/27 01:15:23;;;;;;;5.15;2.58;;;;;;;;;;518070;28;1781;-71
2023/11/27 01:15:38;;;;;;;5.35;2.67;;;;;;;;;;520516;28;1803;-72
2023/11/27 01:15:56;;;;;;;6.53;2.83;;;;;;;;;;519751;28;803;-71
2023/11/27 01:16:11;;;;;;;5.93;3.00;;;;;;;;;;520185;28;1301;-72
2023/11/27 01:16:27;;;;;;;6.27;2.83;;;;;;;;;;522776;28;945;-71
2023/11/27 01:16:42;;;;;;;6.90;2.50;;;;;;;;;;521770;28;783;-72
2023/11/27 01:16:57;;;;;;;5.53;2.58;;;;;;;;;;521160;28;1682;-71
2023/11/27 01:17:13;;;;;;;5.37;2.90;;;;;;;;;;520580;28;1792;-72
2023/11/27 01:17:28;;;;;;;6.27;2.90;;;;;;;;;;522156;28;1581;-71
2023/11/27 01:17:43;;;;;;;6.53;2.78;;;;;;;;;;522202;28;962;-71
2023/11/27 01:17:59;;;;;;;6.80;2.90;;;;;;;;;;522129;28;1029;-72
2023/11/27 01:18:14;;;;;;;6.93;3.00;;;;;;;;;;522016;28;910;-71
2023/11/27 01:18:29;;;;;;;6.93;2.85;;;;;;;;;;522126;28;1048;-72
2023/11/27 01:18:44;;;;;;;6.53;2.80;;;;;;;;;;522461;28;997;-71
2023/11/27 01:19:00;;;;;;;5.27;2.70;;;;;;;;;;524651;28;1206;-72
2023/11/27 01:19:15;;;;;;;5.28;2.90;;;;;;;;;;526695;28;961;-71
2023/11/27 01:19:30;;;;;;;6.17;3.00;;;;;;;;;;523338;28;1813;-71
2023/11/27 01:19:46;;;;;;;6.10;2.97;;;;;;;;;;524399;28;1219;-72
2023/11/27 01:20:01;;;;;;;6.30;3.10;;;;;;;;;;522131;28;1706;-71
2023/11/27 01:20:16;;;;;;;6.60;2.90;;;;;;;;;;522190;28;802;-72
2023/11/27 01:20:32;;;;;;;5.57;2.77;;;;;;;;;;521118;28;1167;-71
2023/11/27 01:20:47;;;;;;;4.97;2.67;;;;;;;;;;522261;28;946;-72
2023/11/27 01:21:02;;;;;;;5.23;2.73;;;;;;;;;;519966;28;1170;-71
2023/11/27 01:21:17;;;;;;;5.57;2.80;;;;;;;;;;519921;28;1545;-72
2023/11/27 01:21:33;;;;;;;5.33;2.70;;;;;;;;;;519569;28;1118;-71
2023/11/27 01:21:48;;;;;;;5.70;2.70;;;;;;;;;;519317;28;1819;-71
2023/11/27 01:22:04;;;;;;;5.83;2.90;;;;;;;;;;521635;28;1930;-72
2023/11/27 01:22:19;;;;;;;4.90;2.80;;;;;;;;;;522092;28;850;-72
2023/11/27 01:22:38;;;;;;;5.23;2.63;;;;;;;;;;520139;28;835;-72
2023/11/27 01:22:54;;;;;;;6.15;2.67;;;;;;;;;;520715;28;839;-71
2023/11/27 01:23:09;;;;;;;5.53;2.70;;;;;;;;;;522133;28;922;-71
2023/11/27 01:23:25;;;;;;;5.90;2.63;;;;;;;;;;522566;28;1189;-72
2023/11/27 01:23:40;;;;;;;7.38;2.80;;;;;;;;;;524315;28;898;-71
2023/11/27 01:23:55;;;;;;;6.73;2.87;;;;;;;;;;523141;28;1195;-72
2023/11/27 01:24:10;;;;;;;5.20;2.77;;;;;;;;;;522094;28;1496;-71
2023/11/27 01:24:26;;;;;;;4.97;2.60;;;;;;;;;;521301;28;1803;-72
2023/11/27 01:24:41;;;;;;;5.10;2.60;;;;;;;;;;520874;28;916;-71
2023/11/27 01:24:56;;;;;;;5.40;2.90;;;;;;;;;;522311;28;811;-71
2023/11/27 01:25:12;;;;;;;5.63;2.90;;;;;;;;;;522147;28;800;-72
2023/11/27 01:25:27;;;;;;;6.70;2.97;;;;;;;;;;522049;28;1040;-71
2023/11/27 01:25:42;;;;;;;6.67;2.97;;;;;;;;;;522240;28;874;-72
2023/11/27 01:25:57;;;;;;;6.33;2.90;;;;;;;;;;522206;28;1304;-71
2023/11/27 01:26:13;;;;;;;5.47;2.60;;;;;;;;;;524122;28;997;-71
2023/11/27 01:26:29;;;;;;;5.17;2.67;;;;;;;;;;522825;28;1020;-71
2023/11/27 01:26:44;;;;;;;6.03;2.70;;;;;;;;;;522082;28;889;-71
2023/11/27 01:27:00;;;;;;;6.33;2.93;;;;;;;;;;522559;28;1324;-71
2023/11/27 01:27:15;;;;;;;6.05;3.00;;;;;;;;;;522281;28;925;-72
2023/11/27 01:27:31;;;;;;;4.90;2.73;;;;;;;;;;521886;28;1096;-72
2023/11/27 01:27:47;;;;;;;5.05;2.67;;;;;;;;;;522680;28;1297;-71
2023/11/27 01:28:03;;;;;;;6.22;2.80;;;;;;;;;;526554;28;870;-71
2023/11/27 01:28:18;;;;;;;5.63;2.70;;;;;;;;;;526592;28;993;-72
2023/11/27 01:28:33;;;;;;;5.23;2.63;;;;;;;;;;523613;28;1943;-72
2023/11/27 01:28:49;;;;;;;7.15;2.90;;;;;;;;;;523733;28;1166;-71
2023/11/27 01:29:04;;;;;;;7.00;3.00;;;;;;;;;;524367;28;1903;-71
2023/11/27 01:29:22;;;;;;;6.60;3.00;;;;;;;;;;524309;28;1207;-71
2023/11/27 01:29:38;;;;;;;6.40;2.83;;;;;;;;;;526034;28;1241;-71
2023/11/27 01:29:53;;;;;;;6.43;2.90;;;;;;;;;;524335;28;850;-71
2023/11/27 01:30:09;;;;;;;6.22;2.90;;;;;;;;;;524342;28;930;-72
2023/11/27 01:30:24;;;;;;;5.97;2.80;;;;;;;;;;524750;28;1394;-71
2023/11/27 01:30:39;;;;;;;5.80;2.90;;;;;;;;;;524128;28;830;-71
2023/11/27 01:30:55;;;;;;;6.50;3.00;;;;;;;;;;524338;28;831;-71
2023/11/27 01:31:10;;;;;;;6.03;2.90;;;;;;;;;;523607;28;1749;-71
2023/11/27 01:31:26;;;;;;;6.20;3.00;;;;;;;;;;523976;28;914;-71
2023/11/27 01:31:41;;;;;;;6.97;3.10;;;;;;;;;;524151;28;1066;-71
2023/11/27 01:31:56;;;;;;;6.10;2.87;;;;;;;;;;524210;28;1039;-71
2023/11/27 01:32:11;;;;;;;6.28;3.03;;;;;;;;;;524057;28;881;-72
2023/11/27 01:32:27;;;;;;;6.77;3.13;;;;;;;;;;524264;28;1072;-71
2023/11/27 01:32:43;;;;;;;6.00;2.77;;;;;;;;;;524093;28;815;-71
2023/11/27 01:32:58;;;;;;;7.40;2.70;;;;;;;;;;526252;28;1223;-71
2023/11/27 01:33:15;;;;;;;7.32;2.80;;;;;;;;;;522850;28;1207;-72
2023/11/27 01:33:30;;;;;;;5.38;2.70;;;;;;;;;;522009;28;1273;-72
2023/11/27 01:33:45;;;;;;;4.97;2.80;;;;;;;;;;521923;28;1183;-72
2023/11/27 01:34:01;;;;;;;5.90;2.67;;;;;;;;;;521713;28;874;-71
2023/11/27 01:34:17;;;;;;;6.20;2.70;;;;;;;;;;520092;28;1180;-72
2023/11/27 01:34:32;;;;;;;5.28;2.78;;;;;;;;;;519903;28;1022;-71
2023/11/27 01:34:47;;;;;;;5.75;2.80;;;;;;;;;;517391;28;1370;-71
2023/11/27 01:35:03;;;;;;;6.60;2.93;;;;;;;;;;516450;28;1033;-71
2023/11/27 01:35:20;;;;;;;6.65;3.05;;;;;;;;;;517932;28;981;-71
2023/11/27 01:35:35;;;;;;;6.00;2.78;;;;;;;;;;519754;28;1179;-71
2023/11/27 01:35:51;;;;;;;5.03;2.50;;;;;;;;;;522232;28;811;-71
2023/11/27 01:36:07;;;;;;;4.63;2.60;;;;;;;;;;519488;28;1485;-72
2023/11/27 01:36:22;;;;;;;6.43;2.97;;;;;;;;;;521592;28;986;-72
2023/11/27 01:36:37;;;;;;;7.18;3.10;;;;;;;;;;522506;28;1175;-71
2023/11/27 01:36:52;;;;;;;6.47;2.90;;;;;;;;;;524044;28;826;-72